sensor_id;sensor_type;location;lat;lon;timestamp;P1;durP1;ratioP1;P2;durP2;ratioP2
70165;SDS011;57541;47.408;18.822;2023-07-13T00:00:29;9.82;;;3.65;;
70165;SDS011;57541;47.408;18.822;2023-07-13T00:01:03;11.10;;;3.67;;
70165;SDS011;57541;47.408;18.822;2023-07-13T00:01:35;9.77;;;3.50;;
70165;SDS011;57541;47.408;18.822;2023-07-13T00:02:10;8.73;;;3.40;;
70165;SDS011;57541;47.408;18.822;2023-07-13T00:02:42;7.53;;;3.40;;
70165;SDS011;57541;47.408;18.822;2023-07-13T00:03:15;8.82;;;3.53;;
70165;SDS011;57541;47.408;18.822;2023-07-13T00:03:47;7.45;;;3.45;;
70165;SDS011;57541;47.408;18.822;2023-07-13T00:04:20;10.23;;;3.20;;
70165;SDS011;57541;47.408;18.822;2023-07-13T00:04:54;6.87;;;3.30;;
70165;SDS011;57541;47.408;18.822;2023-07-13T00:05:26;8.98;;;3.40;;
70165;SDS011;57541;47.408;18.822;2023-07-13T00:05:59;9.07;;;3.45;;
70165;SDS011;57541;47.408;18.822;2023-07-13T00:06:32;11.60;;;3.67;;
70165;SDS011;57541;47.408;18.822;2023-07-13T00:07:04;7.18;;;3.35;;
70165;SDS011;57541;47.408;18.822;2023-07-13T00:07:36;9.88;;;3.80;;
70165;SDS011;57541;47.408;18.822;2023-07-13T00:08:08;8.68;;;3.30;;
70165;SDS011;57541;47.408;18.822;2023-07-13T00:08:40;8.38;;;3.40;;
70165;SDS011;57541;47.408;18.822;2023-07-13T00:09:12;8.48;;;3.17;;
70165;SDS011;57541;47.408;18.822;2023-07-13T00:09:48;8.88;;;3.45;;
70165;SDS011;57541;47.408;18.822;2023-07-13T00:10:20;9.40;;;3.20;;
70165;SDS011;57541;47.408;18.822;2023-07-13T00:10:52;11.93;;;3.33;;
70165;SDS011;57541;47.408;18.822;2023-07-13T00:11:27;10.57;;;3.00;;
70165;SDS011;57541;47.408;18.822;2023-07-13T00:11:59;7.57;;;3.17;;
70165;SDS011;57541;47.408;18.822;2023-07-13T00:12:32;8.82;;;3.50;;
70165;SDS011;57541;47.408;18.822;2023-07-13T00:13:05;8.45;;;3.22;;
70165;SDS011;57541;47.408;18.822;2023-07-13T00:13:37;7.18;;;2.85;;
70165;SDS011;57541;47.408;18.822;2023-07-13T00:14:10;6.32;;;2.88;;
70165;SDS011;57541;47.408;18.822;2023-07-13T00:14:42;7.45;;;3.22;;
70165;SDS011;57541;47.408;18.822;2023-07-13T00:15:18;8.25;;;3.50;;
70165;SDS011;57541;47.408;18.822;2023-07-13T00:15:54;9.60;;;3.53;;
70165;SDS011;57541;47.408;18.822;2023-07-13T00:16:27;7.00;;;3.33;;
70165;SDS011;57541;47.408;18.822;2023-07-13T00:16:59;6.80;;;2.97;;
70165;SDS011;57541;47.408;18.822;2023-07-13T00:17:31;8.73;;;3.17;;
70165;SDS011;57541;47.408;18.822;2023-07-13T00:18:03;8.05;;;2.92;;
70165;SDS011;57541;47.408;18.822;2023-07-13T00:18:35;8.60;;;3.25;;
70165;SDS011;57541;47.408;18.822;2023-07-13T00:19:07;6.75;;;2.97;;
70165;SDS011;57541;47.408;18.822;2023-07-13T00:19:38;7.63;;;2.92;;
70165;SDS011;57541;47.408;18.822;2023-07-13T00:20:10;7.38;;;3.20;;
70165;SDS011;57541;47.408;18.822;2023-07-13T00:20:42;7.20;;;3.00;;
70165;SDS011;57541;47.408;18.822;2023-07-13T00:21:14;13.17;;;2.93;;
70165;SDS011;57541;47.408;18.822;2023-07-13T00:21:46;6.20;;;2.70;;
70165;SDS011;57541;47.408;18.822;2023-07-13T00:22:19;6.90;;;2.65;;
70165;SDS011;57541;47.408;18.822;2023-07-13T00:22:53;8.02;;;2.60;;
70165;SDS011;57541;47.408;18.822;2023-07-13T00:23:25;7.75;;;2.78;;
70165;SDS011;57541;47.408;18.822;2023-07-13T00:23:57;7.57;;;2.72;;
70165;SDS011;57541;47.408;18.822;2023-07-13T00:24:29;7.25;;;2.58;;
70165;SDS011;57541;47.408;18.822;2023-07-13T00:25:01;7.20;;;2.88;;
70165;SDS011;57541;47.408;18.822;2023-07-13T00:25:32;6.72;;;2.75;;
70165;SDS011;57541;47.408;18.822;2023-07-13T00:26:05;5.30;;;2.70;;
70165;SDS011;57541;47.408;18.822;2023-07-13T00:26:38;6.50;;;2.53;;
70165;SDS011;57541;47.408;18.822;2023-07-13T00:27:11;6.75;;;2.50;;
70165;SDS011;57541;47.408;18.822;2023-07-13T00:27:43;5.65;;;2.70;;
70165;SDS011;57541;47.408;18.822;2023-07-13T00:28:15;8.60;;;3.13;;
70165;SDS011;57541;47.408;18.822;2023-07-13T00:28:47;5.90;;;2.50;;
70165;SDS011;57541;47.408;18.822;2023-07-13T00:29:18;7.50;;;2.40;;
70165;SDS011;57541;47.408;18.822;2023-07-13T00:29:52;7.22;;;2.42;;
70165;SDS011;57541;47.408;18.822;2023-07-13T00:30:24;7.93;;;2.83;;
70165;SDS011;57541;47.408;18.822;2023-07-13T00:30:57;6.75;;;2.80;;
70165;SDS011;57541;47.408;18.822;2023-07-13T00:31:29;6.93;;;2.47;;
70165;SDS011;57541;47.408;18.822;2023-07-13T00:32:01;6.00;;;2.43;;
70165;SDS011;57541;47.408;18.822;2023-07-13T00:32:35;6.25;;;2.45;;
70165;SDS011;57541;47.408;18.822;2023-07-13T00:33:06;7.97;;;2.38;;
70165;SDS011;57541;47.408;18.822;2023-07-13T00:33:48;8.05;;;2.50;;
70165;SDS011;57541;47.408;18.822;2023-07-13T00:34:20;6.53;;;2.40;;
70165;SDS011;57541;47.408;18.822;2023-07-13T00:34:52;6.78;;;2.63;;
70165;SDS011;57541;47.408;18.822;2023-07-13T00:35:25;7.10;;;2.42;;
70165;SDS011;57541;47.408;18.822;2023-07-13T00:35:57;8.38;;;2.15;;
70165;SDS011;57541;47.408;18.822;2023-07-13T00:36:29;6.97;;;2.42;;
70165;SDS011;57541;47.408;18.822;2023-07-13T00:37:02;5.68;;;2.20;;
70165;SDS011;57541;47.408;18.822;2023-07-13T00:37:34;7.47;;;3.07;;
70165;SDS011;57541;47.408;18.822;2023-07-13T00:38:07;5.85;;;2.47;;
70165;SDS011;57541;47.408;18.822;2023-07-13T00:38:39;6.47;;;2.20;;
70165;SDS011;57541;47.408;18.822;2023-07-13T00:39:10;5.93;;;2.10;;
70165;SDS011;57541;47.408;18.822;2023-07-13T00:39:42;5.38;;;2.25;;
70165;SDS011;57541;47.408;18.822;2023-07-13T00:40:15;5.00;;;1.95;;
70165;SDS011;57541;47.408;18.822;2023-07-13T00:40:47;6.97;;;2.10;;
70165;SDS011;57541;47.408;18.822;2023-07-13T00:41:19;6.38;;;2.08;;
70165;SDS011;57541;47.408;18.822;2023-07-13T00:41:51;6.10;;;2.30;;
70165;SDS011;57541;47.408;18.822;2023-07-13T00:42:23;7.05;;;1.92;;
70165;SDS011;57541;47.408;18.822;2023-07-13T00:42:56;6.97;;;2.47;;
70165;SDS011;57541;47.408;18.822;2023-07-13T00:43:29;7.65;;;2.50;;
70165;SDS011;57541;47.408;18.822;2023-07-13T00:44:02;5.15;;;2.20;;
70165;SDS011;57541;47.408;18.822;2023-07-13T00:44:34;6.00;;;2.22;;
70165;SDS011;57541;47.408;18.822;2023-07-13T00:46:17;6.88;;;2.20;;
70165;SDS011;57541;47.408;18.822;2023-07-13T00:46:51;6.78;;;2.20;;
70165;SDS011;57541;47.408;18.822;2023-07-13T00:47:24;4.85;;;2.00;;
70165;SDS011;57541;47.408;18.822;2023-07-13T00:47:55;4.88;;;1.90;;
70165;SDS011;57541;47.408;18.822;2023-07-13T00:48:29;6.20;;;1.90;;
70165;SDS011;57541;47.408;18.822;2023-07-13T00:49:06;5.10;;;2.13;;
70165;SDS011;57541;47.408;18.822;2023-07-13T00:49:39;5.68;;;1.90;;
70165;SDS011;57541;47.408;18.822;2023-07-13T00:50:12;6.70;;;2.17;;
70165;SDS011;57541;47.408;18.822;2023-07-13T00:50:48;5.43;;;2.10;;
70165;SDS011;57541;47.408;18.822;2023-07-13T00:51:27;6.25;;;1.90;;
70165;SDS011;57541;47.408;18.822;2023-07-13T00:52:06;5.85;;;2.05;;
70165;SDS011;57541;47.408;18.822;2023-07-13T00:52:40;5.00;;;1.90;;
70165;SDS011;57541;47.408;18.822;2023-07-13T00:53:14;7.50;;;1.90;;
70165;SDS011;57541;47.408;18.822;2023-07-13T00:53:46;5.65;;;2.00;;
70165;SDS011;57541;47.408;18.822;2023-07-13T00:54:23;7.10;;;2.10;;
70165;SDS011;57541;47.408;18.822;2023-07-13T00:54:58;7.72;;;2.40;;
70165;SDS011;57541;47.408;18.822;2023-07-13T00:55:30;5.85;;;2.13;;
70165;SDS011;57541;47.408;18.822;2023-07-13T00:56:02;7.70;;;2.13;;
70165;SDS011;57541;47.408;18.822;2023-07-13T00:56:34;6.07;;;2.20;;
70165;SDS011;57541;47.408;18.822;2023-07-13T00:57:08;6.88;;;1.83;;
70165;SDS011;57541;47.408;18.822;2023-07-13T00:57:50;6.00;;;2.13;;
70165;SDS011;57541;47.408;18.822;2023-07-13T00:58:22;7.20;;;2.10;;
70165;SDS011;57541;47.408;18.822;2023-07-13T00:58:55;6.65;;;2.00;;
70165;SDS011;57541;47.408;18.822;2023-07-13T00:59:29;7.30;;;1.80;;
70165;SDS011;57541;47.408;18.822;2023-07-13T01:00:04;7.37;;;2.33;;
70165;SDS011;57541;47.408;18.822;2023-07-13T01:00:41;6.45;;;1.90;;
70165;SDS011;57541;47.408;18.822;2023-07-13T01:01:13;7.28;;;2.10;;
70165;SDS011;57541;47.408;18.822;2023-07-13T01:01:44;6.78;;;2.00;;
70165;SDS011;57541;47.408;18.822;2023-07-13T01:02:16;6.30;;;2.13;;
70165;SDS011;57541;47.408;18.822;2023-07-13T01:02:49;6.40;;;2.05;;
70165;SDS011;57541;47.408;18.822;2023-07-13T01:03:21;5.43;;;2.10;;
70165;SDS011;57541;47.408;18.822;2023-07-13T01:03:52;4.82;;;1.88;;
70165;SDS011;57541;47.408;18.822;2023-07-13T01:04:25;6.13;;;2.13;;
70165;SDS011;57541;47.408;18.822;2023-07-13T01:04:57;7.00;;;2.15;;
70165;SDS011;57541;47.408;18.822;2023-07-13T01:05:29;5.73;;;2.20;;
70165;SDS011;57541;47.408;18.822;2023-07-13T01:06:00;7.72;;;2.15;;
70165;SDS011;57541;47.408;18.822;2023-07-13T01:06:32;6.60;;;1.80;;
70165;SDS011;57541;47.408;18.822;2023-07-13T01:07:06;6.25;;;2.25;;
70165;SDS011;57541;47.408;18.822;2023-07-13T01:07:38;5.88;;;2.08;;
70165;SDS011;57541;47.408;18.822;2023-07-13T01:08:12;8.02;;;2.20;;
70165;SDS011;57541;47.408;18.822;2023-07-13T01:08:43;5.07;;;2.05;;
70165;SDS011;57541;47.408;18.822;2023-07-13T01:09:15;5.95;;;1.83;;
70165;SDS011;57541;47.408;18.822;2023-07-13T01:09:47;8.07;;;2.30;;
70165;SDS011;57541;47.408;18.822;2023-07-13T01:10:22;5.00;;;1.75;;
70165;SDS011;57541;47.408;18.822;2023-07-13T01:10:55;5.33;;;2.00;;
70165;SDS011;57541;47.408;18.822;2023-07-13T01:11:29;6.75;;;2.10;;
70165;SDS011;57541;47.408;18.822;2023-07-13T01:12:01;5.60;;;1.98;;
70165;SDS011;57541;47.408;18.822;2023-07-13T01:12:34;6.10;;;2.22;;
70165;SDS011;57541;47.408;18.822;2023-07-13T01:13:06;5.82;;;2.20;;
70165;SDS011;57541;47.408;18.822;2023-07-13T01:13:40;5.45;;;2.00;;
70165;SDS011;57541;47.408;18.822;2023-07-13T01:14:11;7.05;;;2.20;;
70165;SDS011;57541;47.408;18.822;2023-07-13T01:14:43;5.05;;;2.03;;
70165;SDS011;57541;47.408;18.822;2023-07-13T01:16:24;5.03;;;2.00;;
70165;SDS011;57541;47.408;18.822;2023-07-13T01:16:58;5.63;;;2.23;;
70165;SDS011;57541;47.408;18.822;2023-07-13T01:17:33;6.22;;;2.90;;
70165;SDS011;57541;47.408;18.822;2023-07-13T01:18:07;4.80;;;2.08;;
70165;SDS011;57541;47.408;18.822;2023-07-13T01:18:41;6.00;;;2.38;;
70165;SDS011;57541;47.408;18.822;2023-07-13T01:19:32;5.53;;;2.08;;
70165;SDS011;57541;47.408;18.822;2023-07-13T01:20:10;7.03;;;2.03;;
70165;SDS011;57541;47.408;18.822;2023-07-13T01:21:29;6.28;;;2.13;;
70165;SDS011;57541;47.408;18.822;2023-07-13T01:22:08;5.32;;;2.10;;
70165;SDS011;57541;47.408;18.822;2023-07-13T01:22:43;6.53;;;2.10;;
70165;SDS011;57541;47.408;18.822;2023-07-13T01:23:15;7.70;;;2.00;;
70165;SDS011;57541;47.408;18.822;2023-07-13T01:23:47;6.78;;;2.10;;
70165;SDS011;57541;47.408;18.822;2023-07-13T01:24:19;8.25;;;2.10;;
70165;SDS011;57541;47.408;18.822;2023-07-13T01:24:51;6.57;;;2.28;;
70165;SDS011;57541;47.408;18.822;2023-07-13T01:25:24;5.80;;;2.00;;
70165;SDS011;57541;47.408;18.822;2023-07-13T01:25:56;6.55;;;2.00;;
70165;SDS011;57541;47.408;18.822;2023-07-13T01:26:30;7.75;;;1.77;;
70165;SDS011;57541;47.408;18.822;2023-07-13T01:27:02;9.02;;;2.28;;
70165;SDS011;57541;47.408;18.822;2023-07-13T01:27:34;6.57;;;2.15;;
70165;SDS011;57541;47.408;18.822;2023-07-13T01:28:07;6.40;;;2.20;;
70165;SDS011;57541;47.408;18.822;2023-07-13T01:28:42;6.50;;;2.20;;
70165;SDS011;57541;47.408;18.822;2023-07-13T01:29:14;6.55;;;2.08;;
70165;SDS011;57541;47.408;18.822;2023-07-13T01:29:46;5.95;;;2.40;;
70165;SDS011;57541;47.408;18.822;2023-07-13T01:30:19;8.15;;;2.30;;
70165;SDS011;57541;47.408;18.822;2023-07-13T01:30:50;7.78;;;2.17;;
70165;SDS011;57541;47.408;18.822;2023-07-13T01:31:22;7.80;;;2.00;;
70165;SDS011;57541;47.408;18.822;2023-07-13T01:31:54;7.38;;;2.60;;
70165;SDS011;57541;47.408;18.822;2023-07-13T01:32:26;8.85;;;2.33;;
70165;SDS011;57541;47.408;18.822;2023-07-13T01:32:58;6.78;;;2.47;;
70165;SDS011;57541;47.408;18.822;2023-07-13T01:33:30;10.65;;;2.40;;
70165;SDS011;57541;47.408;18.822;2023-07-13T01:34:02;4.97;;;2.00;;
70165;SDS011;57541;47.408;18.822;2023-07-13T01:34:33;7.22;;;2.03;;
70165;SDS011;57541;47.408;18.822;2023-07-13T01:35:05;5.32;;;2.10;;
70165;SDS011;57541;47.408;18.822;2023-07-13T01:35:37;7.43;;;2.30;;
70165;SDS011;57541;47.408;18.822;2023-07-13T01:36:09;6.85;;;2.22;;
70165;SDS011;57541;47.408;18.822;2023-07-13T01:36:42;5.85;;;2.22;;
70165;SDS011;57541;47.408;18.822;2023-07-13T01:37:14;9.13;;;2.60;;
70165;SDS011;57541;47.408;18.822;2023-07-13T01:37:46;5.10;;;2.05;;
70165;SDS011;57541;47.408;18.822;2023-07-13T01:38:20;8.40;;;2.88;;
70165;SDS011;57541;47.408;18.822;2023-07-13T01:38:54;5.88;;;2.17;;
70165;SDS011;57541;47.408;18.822;2023-07-13T01:39:25;6.00;;;2.10;;
70165;SDS011;57541;47.408;18.822;2023-07-13T01:39:57;6.22;;;2.08;;
70165;SDS011;57541;47.408;18.822;2023-07-13T01:40:29;5.32;;;2.03;;
70165;SDS011;57541;47.408;18.822;2023-07-13T01:41:01;6.68;;;2.50;;
70165;SDS011;57541;47.408;18.822;2023-07-13T01:41:33;4.85;;;2.10;;
70165;SDS011;57541;47.408;18.822;2023-07-13T01:42:05;6.22;;;2.20;;
70165;SDS011;57541;47.408;18.822;2023-07-13T01:42:37;7.55;;;2.10;;
70165;SDS011;57541;47.408;18.822;2023-07-13T01:43:09;6.22;;;2.10;;
70165;SDS011;57541;47.408;18.822;2023-07-13T01:43:41;5.68;;;2.50;;
70165;SDS011;57541;47.408;18.822;2023-07-13T01:44:13;7.90;;;2.60;;
70165;SDS011;57541;47.408;18.822;2023-07-13T01:44:45;6.77;;;2.30;;
70165;SDS011;57541;47.408;18.822;2023-07-13T01:45:17;8.23;;;2.40;;
70165;SDS011;57541;47.408;18.822;2023-07-13T01:45:48;7.40;;;2.45;;
70165;SDS011;57541;47.408;18.822;2023-07-13T01:46:20;7.28;;;2.95;;
70165;SDS011;57541;47.408;18.822;2023-07-13T01:46:54;9.55;;;4.70;;
70165;SDS011;57541;47.408;18.822;2023-07-13T01:47:26;8.43;;;3.88;;
70165;SDS011;57541;47.408;18.822;2023-07-13T01:47:59;11.05;;;5.95;;
70165;SDS011;57541;47.408;18.822;2023-07-13T01:48:31;10.50;;;5.40;;
70165;SDS011;57541;47.408;18.822;2023-07-13T01:49:03;11.50;;;5.22;;
70165;SDS011;57541;47.408;18.822;2023-07-13T01:49:34;10.05;;;4.88;;
70165;SDS011;57541;47.408;18.822;2023-07-13T01:50:06;10.33;;;5.50;;
70165;SDS011;57541;47.408;18.822;2023-07-13T01:50:38;10.00;;;5.30;;
70165;SDS011;57541;47.408;18.822;2023-07-13T01:51:11;10.85;;;5.03;;
70165;SDS011;57541;47.408;18.822;2023-07-13T01:51:43;9.75;;;4.35;;
70165;SDS011;57541;47.408;18.822;2023-07-13T01:52:15;7.93;;;3.30;;
70165;SDS011;57541;47.408;18.822;2023-07-13T01:52:46;6.45;;;2.70;;
70165;SDS011;57541;47.408;18.822;2023-07-13T01:53:18;7.22;;;2.75;;
70165;SDS011;57541;47.408;18.822;2023-07-13T01:53:50;7.80;;;2.70;;
70165;SDS011;57541;47.408;18.822;2023-07-13T01:54:21;6.68;;;2.47;;
70165;SDS011;57541;47.408;18.822;2023-07-13T01:54:53;7.00;;;2.53;;
70165;SDS011;57541;47.408;18.822;2023-07-13T01:55:25;6.67;;;2.47;;
70165;SDS011;57541;47.408;18.822;2023-07-13T01:55:57;7.82;;;2.67;;
70165;SDS011;57541;47.408;18.822;2023-07-13T01:56:28;7.72;;;2.55;;
70165;SDS011;57541;47.408;18.822;2023-07-13T01:57:00;8.48;;;2.40;;
70165;SDS011;57541;47.408;18.822;2023-07-13T01:57:32;7.78;;;2.40;;
70165;SDS011;57541;47.408;18.822;2023-07-13T01:58:04;6.40;;;2.20;;
70165;SDS011;57541;47.408;18.822;2023-07-13T01:58:36;7.80;;;2.28;;
70165;SDS011;57541;47.408;18.822;2023-07-13T01:59:08;6.97;;;2.50;;
70165;SDS011;57541;47.408;18.822;2023-07-13T01:59:40;5.28;;;2.10;;
70165;SDS011;57541;47.408;18.822;2023-07-13T02:00:13;8.15;;;2.58;;
70165;SDS011;57541;47.408;18.822;2023-07-13T02:00:47;6.20;;;2.13;;
70165;SDS011;57541;47.408;18.822;2023-07-13T02:01:20;6.45;;;2.20;;
70165;SDS011;57541;47.408;18.822;2023-07-13T02:01:51;6.38;;;2.40;;
70165;SDS011;57541;47.408;18.822;2023-07-13T02:02:23;5.88;;;2.30;;
70165;SDS011;57541;47.408;18.822;2023-07-13T02:02:55;5.85;;;2.20;;
70165;SDS011;57541;47.408;18.822;2023-07-13T02:03:27;6.18;;;2.00;;
70165;SDS011;57541;47.408;18.822;2023-07-13T02:03:59;7.63;;;2.35;;
70165;SDS011;57541;47.408;18.822;2023-07-13T02:04:31;5.57;;;2.17;;
70165;SDS011;57541;47.408;18.822;2023-07-13T02:05:02;7.25;;;2.22;;
70165;SDS011;57541;47.408;18.822;2023-07-13T02:05:35;5.15;;;2.20;;
70165;SDS011;57541;47.408;18.822;2023-07-13T02:06:07;7.43;;;2.30;;
70165;SDS011;57541;47.408;18.822;2023-07-13T02:06:39;7.30;;;2.35;;
70165;SDS011;57541;47.408;18.822;2023-07-13T02:07:11;6.47;;;2.60;;
70165;SDS011;57541;47.408;18.822;2023-07-13T02:07:43;5.47;;;2.30;;
70165;SDS011;57541;47.408;18.822;2023-07-13T02:08:14;6.47;;;2.42;;
70165;SDS011;57541;47.408;18.822;2023-07-13T02:08:46;6.25;;;2.58;;
70165;SDS011;57541;47.408;18.822;2023-07-13T02:09:18;6.00;;;2.17;;
70165;SDS011;57541;47.408;18.822;2023-07-13T02:09:49;6.22;;;2.30;;
70165;SDS011;57541;47.408;18.822;2023-07-13T02:10:21;6.43;;;2.60;;
70165;SDS011;57541;47.408;18.822;2023-07-13T02:10:53;6.47;;;2.42;;
70165;SDS011;57541;47.408;18.822;2023-07-13T02:11:24;6.03;;;2.27;;
70165;SDS011;57541;47.408;18.822;2023-07-13T02:12:03;5.70;;;2.30;;
70165;SDS011;57541;47.408;18.822;2023-07-13T02:12:36;6.60;;;2.20;;
70165;SDS011;57541;47.408;18.822;2023-07-13T02:13:08;6.55;;;2.20;;
70165;SDS011;57541;47.408;18.822;2023-07-13T02:13:40;6.95;;;2.35;;
70165;SDS011;57541;47.408;18.822;2023-07-13T02:14:12;6.82;;;2.55;;
70165;SDS011;57541;47.408;18.822;2023-07-13T02:14:43;6.32;;;2.33;;
70165;SDS011;57541;47.408;18.822;2023-07-13T02:15:16;5.65;;;2.33;;
70165;SDS011;57541;47.408;18.822;2023-07-13T02:15:52;7.70;;;2.50;;
70165;SDS011;57541;47.408;18.822;2023-07-13T02:16:24;7.25;;;2.25;;
70165;SDS011;57541;47.408;18.822;2023-07-13T02:16:55;6.10;;;2.67;;
70165;SDS011;57541;47.408;18.822;2023-07-13T02:17:27;5.68;;;2.15;;
70165;SDS011;57541;47.408;18.822;2023-07-13T02:17:59;6.53;;;2.25;;
70165;SDS011;57541;47.408;18.822;2023-07-13T02:18:31;6.47;;;2.33;;
70165;SDS011;57541;47.408;18.822;2023-07-13T02:19:02;5.82;;;2.00;;
70165;SDS011;57541;47.408;18.822;2023-07-13T02:19:34;6.13;;;1.98;;
70165;SDS011;57541;47.408;18.822;2023-07-13T02:20:06;6.55;;;2.20;;
70165;SDS011;57541;47.408;18.822;2023-07-13T02:20:38;5.32;;;2.20;;
70165;SDS011;57541;47.408;18.822;2023-07-13T02:21:10;5.70;;;2.20;;
70165;SDS011;57541;47.408;18.822;2023-07-13T02:21:41;7.63;;;2.53;;
70165;SDS011;57541;47.408;18.822;2023-07-13T02:22:14;6.33;;;2.40;;
70165;SDS011;57541;47.408;18.822;2023-07-13T02:22:45;5.70;;;2.13;;
70165;SDS011;57541;47.408;18.822;2023-07-13T02:23:17;5.43;;;2.10;;
70165;SDS011;57541;47.408;18.822;2023-07-13T02:23:50;7.65;;;2.70;;
70165;SDS011;57541;47.408;18.822;2023-07-13T02:24:21;7.35;;;2.38;;
70165;SDS011;57541;47.408;18.822;2023-07-13T02:24:53;7.90;;;2.33;;
70165;SDS011;57541;47.408;18.822;2023-07-13T02:25:25;6.05;;;2.40;;
70165;SDS011;57541;47.408;18.822;2023-07-13T02:25:58;6.03;;;2.60;;
70165;SDS011;57541;47.408;18.822;2023-07-13T02:26:31;5.85;;;2.20;;
70165;SDS011;57541;47.408;18.822;2023-07-13T02:27:03;7.15;;;2.63;;
70165;SDS011;57541;47.408;18.822;2023-07-13T02:27:35;7.60;;;2.40;;
70165;SDS011;57541;47.408;18.822;2023-07-13T02:28:07;6.65;;;3.03;;
70165;SDS011;57541;47.408;18.822;2023-07-13T02:28:38;5.90;;;2.33;;
70165;SDS011;57541;47.408;18.822;2023-07-13T02:29:10;7.20;;;2.50;;
70165;SDS011;57541;47.408;18.822;2023-07-13T02:29:42;7.38;;;3.00;;
70165;SDS011;57541;47.408;18.822;2023-07-13T02:30:15;6.22;;;2.70;;
70165;SDS011;57541;47.408;18.822;2023-07-13T02:30:47;7.63;;;2.45;;
70165;SDS011;57541;47.408;18.822;2023-07-13T02:31:19;6.10;;;2.30;;
70165;SDS011;57541;47.408;18.822;2023-07-13T02:31:50;8.07;;;2.70;;
70165;SDS011;57541;47.408;18.822;2023-07-13T02:32:22;7.75;;;2.85;;
70165;SDS011;57541;47.408;18.822;2023-07-13T02:32:56;6.10;;;2.73;;
70165;SDS011;57541;47.408;18.822;2023-07-13T02:33:28;9.88;;;3.03;;
70165;SDS011;57541;47.408;18.822;2023-07-13T02:34:00;7.05;;;2.33;;
70165;SDS011;57541;47.408;18.822;2023-07-13T02:34:31;7.32;;;2.53;;
70165;SDS011;57541;47.408;18.822;2023-07-13T02:35:04;6.75;;;2.50;;
70165;SDS011;57541;47.408;18.822;2023-07-13T02:35:36;6.78;;;2.80;;
70165;SDS011;57541;47.408;18.822;2023-07-13T02:36:08;6.68;;;2.60;;
70165;SDS011;57541;47.408;18.822;2023-07-13T02:36:40;5.90;;;2.63;;
70165;SDS011;57541;47.408;18.822;2023-07-13T02:37:13;5.75;;;2.20;;
70165;SDS011;57541;47.408;18.822;2023-07-13T02:37:44;6.97;;;2.95;;
70165;SDS011;57541;47.408;18.822;2023-07-13T02:38:16;5.27;;;2.53;;
70165;SDS011;57541;47.408;18.822;2023-07-13T02:38:49;6.22;;;2.20;;
70165;SDS011;57541;47.408;18.822;2023-07-13T02:39:21;6.00;;;2.47;;
70165;SDS011;57541;47.408;18.822;2023-07-13T02:39:53;6.88;;;2.80;;
70165;SDS011;57541;47.408;18.822;2023-07-13T02:40:28;6.50;;;2.58;;
70165;SDS011;57541;47.408;18.822;2023-07-13T02:41:00;6.28;;;2.55;;
70165;SDS011;57541;47.408;18.822;2023-07-13T02:41:32;6.00;;;2.85;;
70165;SDS011;57541;47.408;18.822;2023-07-13T02:42:04;6.50;;;2.60;;
70165;SDS011;57541;47.408;18.822;2023-07-13T02:42:36;6.63;;;2.67;;
70165;SDS011;57541;47.408;18.822;2023-07-13T02:43:10;6.93;;;2.72;;
70165;SDS011;57541;47.408;18.822;2023-07-13T02:43:41;5.67;;;2.70;;
70165;SDS011;57541;47.408;18.822;2023-07-13T02:44:13;6.45;;;2.67;;
70165;SDS011;57541;47.408;18.822;2023-07-13T02:44:45;7.28;;;3.03;;
70165;SDS011;57541;47.408;18.822;2023-07-13T02:45:17;7.07;;;3.10;;
70165;SDS011;57541;47.408;18.822;2023-07-13T02:45:49;6.75;;;2.53;;
70165;SDS011;57541;47.408;18.822;2023-07-13T02:46:21;6.25;;;2.40;;
70165;SDS011;57541;47.408;18.822;2023-07-13T02:46:53;6.93;;;2.78;;
70165;SDS011;57541;47.408;18.822;2023-07-13T02:47:24;5.90;;;2.90;;
70165;SDS011;57541;47.408;18.822;2023-07-13T02:47:56;6.78;;;2.83;;
70165;SDS011;57541;47.408;18.822;2023-07-13T02:48:28;6.15;;;2.60;;
70165;SDS011;57541;47.408;18.822;2023-07-13T02:49:00;7.27;;;2.57;;
70165;SDS011;57541;47.408;18.822;2023-07-13T02:49:32;8.32;;;2.70;;
70165;SDS011;57541;47.408;18.822;2023-07-13T02:50:03;6.75;;;2.78;;
70165;SDS011;57541;47.408;18.822;2023-07-13T02:50:36;8.68;;;2.75;;
70165;SDS011;57541;47.408;18.822;2023-07-13T02:51:07;9.18;;;2.88;;
70165;SDS011;57541;47.408;18.822;2023-07-13T02:51:39;5.55;;;2.28;;
70165;SDS011;57541;47.408;18.822;2023-07-13T02:52:11;6.13;;;2.67;;
70165;SDS011;57541;47.408;18.822;2023-07-13T02:52:43;5.82;;;2.58;;
70165;SDS011;57541;47.408;18.822;2023-07-13T02:53:14;7.47;;;2.53;;
70165;SDS011;57541;47.408;18.822;2023-07-13T02:53:46;7.43;;;3.00;;
70165;SDS011;57541;47.408;18.822;2023-07-13T02:54:18;6.57;;;2.50;;
70165;SDS011;57541;47.408;18.822;2023-07-13T02:54:50;10.05;;;2.33;;
70165;SDS011;57541;47.408;18.822;2023-07-13T02:55:21;7.15;;;2.40;;
70165;SDS011;57541;47.408;18.822;2023-07-13T02:55:53;7.65;;;2.40;;
70165;SDS011;57541;47.408;18.822;2023-07-13T02:56:26;6.18;;;2.20;;
70165;SDS011;57541;47.408;18.822;2023-07-13T02:56:59;6.43;;;2.55;;
70165;SDS011;57541;47.408;18.822;2023-07-13T02:57:30;6.60;;;2.60;;
70165;SDS011;57541;47.408;18.822;2023-07-13T02:58:04;7.32;;;2.88;;
70165;SDS011;57541;47.408;18.822;2023-07-13T02:58:37;7.75;;;2.65;;
70165;SDS011;57541;47.408;18.822;2023-07-13T02:59:10;7.10;;;2.45;;
70165;SDS011;57541;47.408;18.822;2023-07-13T02:59:42;6.60;;;2.67;;
70165;SDS011;57541;47.408;18.822;2023-07-13T03:00:14;5.53;;;2.58;;
70165;SDS011;57541;47.408;18.822;2023-07-13T03:00:47;7.32;;;2.80;;
70165;SDS011;57541;47.408;18.822;2023-07-13T03:01:21;5.88;;;2.50;;
70165;SDS011;57541;47.408;18.822;2023-07-13T03:01:54;6.97;;;2.50;;
70165;SDS011;57541;47.408;18.822;2023-07-13T03:02:25;6.57;;;2.28;;
70165;SDS011;57541;47.408;18.822;2023-07-13T03:02:59;6.10;;;2.42;;
70165;SDS011;57541;47.408;18.822;2023-07-13T03:03:31;6.80;;;2.75;;
70165;SDS011;57541;47.408;18.822;2023-07-13T03:04:03;8.60;;;2.55;;
70165;SDS011;57541;47.408;18.822;2023-07-13T03:04:36;6.53;;;2.60;;
70165;SDS011;57541;47.408;18.822;2023-07-13T03:05:08;7.03;;;2.70;;
70165;SDS011;57541;47.408;18.822;2023-07-13T03:05:44;6.70;;;2.88;;
70165;SDS011;57541;47.408;18.822;2023-07-13T03:06:21;7.25;;;2.83;;
70165;SDS011;57541;47.408;18.822;2023-07-13T03:06:54;9.68;;;3.00;;
70165;SDS011;57541;47.408;18.822;2023-07-13T03:07:29;8.07;;;2.50;;
70165;SDS011;57541;47.408;18.822;2023-07-13T03:08:02;5.78;;;2.47;;
70165;SDS011;57541;47.408;18.822;2023-07-13T03:08:35;7.45;;;2.55;;
70165;SDS011;57541;47.408;18.822;2023-07-13T03:09:06;6.82;;;2.75;;
70165;SDS011;57541;47.408;18.822;2023-07-13T03:09:39;8.07;;;2.70;;
70165;SDS011;57541;47.408;18.822;2023-07-13T03:10:11;7.75;;;2.78;;
70165;SDS011;57541;47.408;18.822;2023-07-13T03:10:42;8.97;;;2.80;;
70165;SDS011;57541;47.408;18.822;2023-07-13T03:11:15;7.43;;;2.63;;
70165;SDS011;57541;47.408;18.822;2023-07-13T03:11:48;8.13;;;2.75;;
70165;SDS011;57541;47.408;18.822;2023-07-13T03:12:20;6.00;;;2.85;;
70165;SDS011;57541;47.408;18.822;2023-07-13T03:12:52;6.05;;;2.58;;
70165;SDS011;57541;47.408;18.822;2023-07-13T03:13:23;6.38;;;2.60;;
70165;SDS011;57541;47.408;18.822;2023-07-13T03:13:55;7.07;;;3.00;;
70165;SDS011;57541;47.408;18.822;2023-07-13T03:14:27;6.30;;;2.83;;
70165;SDS011;57541;47.408;18.822;2023-07-13T03:14:58;7.10;;;3.45;;
70165;SDS011;57541;47.408;18.822;2023-07-13T03:15:30;10.93;;;2.58;;
70165;SDS011;57541;47.408;18.822;2023-07-13T03:16:02;5.97;;;2.60;;
70165;SDS011;57541;47.408;18.822;2023-07-13T03:16:33;6.45;;;2.63;;